Benvolgut visitant, si us plau, ingressa Recuperar contrasenya
AVAMET paisatges
Union Alcoyana

IVIA la Vila Joiosa Alcocons

Dades diàries. Acumulats / Últims 30 dies disponibles

Data Temperatura (°C) Humitat rel. (%) Pressió rel. (hPa) Vent (km/h) Precipitació
Mínima Mitjana Màxima Amplitud
tèrmica
Mínima Mitjana Màxima Mínima Mitjana Màxima Predom. Mitjana Ràfega
màxima
Total
(mm)
Índex-n
Mínima Mitjana Màxima Mínima Mitjana Màxima n
0 a 1
P0 max
mm 5'
Dades mensuals acumulades fins l'últim dia disponible
05/2022 12,1 15,1 19,6 19,9 17,8 24,5 33,0 20,9 62   3,8 32,8 14,6
Dades anuals acumulades fins l'últim dia disponible
2022 4,5 10,1 20,0 14,3 11,2 18,8 33,0 28,5 15 64 100   4,1 39,6 256,6
Últims 30 dies disponibles
26-05-2022 14,7     19,5     23,9 9,2 56 W 4,0 14,6 0,0
25-05-2022 14,5     19,8     24,9 10,4 49 NW 4,2 23,7 0,0
24-05-2022 18,0     21,6     25,1 7,1 78 S 3,4 15,0 0,0
23-05-2022 16,6     24,3     30,7 14,1 56 NW 4,2 20,3 0,0
22-05-2022 17,4     23,2     28,1 10,7 52 SE 3,3 12,7 0,0
21-05-2022 19,6     24,6     30,5 10,9 40 NW 4,1 20,5 0,0
20-05-2022 19,6     26,2     33,0 13,4 38 NE 4,7 20,4 0,0
19-05-2022 18,3     24,3     30,6 12,3 47 NE 4,8 22,9 0,0
18-05-2022 15,7     21,3     27,1 11,4 75 S 2,6 11,5 0,0
17-05-2022 16,2     20,8     24,9 8,7 78 SW 2,6 12,8 0,0
16-05-2022 14,7     20,4     25,1 10,4 72 S 2,5 12,0 0,0
15-05-2022 16,2     20,4     25,1 8,9 61 SW 3,3 12,7 0,0
14-05-2022 16,1     20,3     24,5 8,4 55 W 3,0 13,7 0,0
13-05-2022 14,9     19,1     22,7 7,8 70 SE 3,5 12,0 0,0
12-05-2022 13,3     19,8     26,1 12,8 56 NE 4,6 18,7 0,0
11-05-2022 13,6     18,2     22,7 9,1 60 W 3,9 13,3 0,0
10-05-2022 13,9     18,1     22,3 8,4 58 W 3,3 12,8 0,0
09-05-2022 13,9     18,2     23,1 9,2 55 NW 4,0 13,7 0,0
08-05-2022 14,2     18,4     22,2 8,0 51 W 3,9 14,0 0,0
07-05-2022 12,5     17,7     21,4 8,9 63 W 4,0 12,9 0,0
06-05-2022 12,1     16,5     20,1 8,0 71 SW 4,1 13,6 0,0
05-05-2022 14,0     18,1     21,9 7,9 56 N 6,0 26,8 0,0
04-05-2022 12,7     15,3     17,8 5,1 79 N 5,7 32,8 13,6
03-05-2022 12,1     16,3     20,7 8,6 77 SW 3,1 15,5 0,0
02-05-2022 13,3     17,4     21,7 8,4 77 NE 3,4 17,4 0,8
01-05-2022 14,9     18,1     21,1 6,2 71 SW 2,9 12,5 0,2
30-04-2022 13,9     18,0     22,3 8,4 57 NW 4,2 12,1 0,0
29-04-2022 10,8     18,1     23,5 12,7 54 N 4,5 22,1 0,0
28-04-2022 11,2     13,6     15,1 3,9 96 NW 0,8 7,5 13,6
26-04-2022 10,7     15,8     20,9 10,2 57 N 4,1 16,4 0,0
Últims 13 mesos disponibles
04/2022 4,9 10,8 13,9 15,1 11,2 19,4 24,5 19,6 38 62 96 NW 4,3 32,5 63,7
03/2022 6,9 10,6 20,0 13,8 12,1 17,4 24,0 17,1 31 72 92 NE 4,1 27,6 164,9
02/2022 6,3 8,3 12,1 12,8 14,6 17,7 21,4 15,1 36 61 78 W 3,8 28,4 1,2
01/2022 4,5 6,5 13,9 10,8 13,6 16,0 24,3 19,8 30 61 92 NW 4,7 39,6 12,2
12/2021 6,3 10,0 18,5 14,0 15,0 18,7 24,6 18,3 36 61 87 NW 4,3 34,2 0,2
11/2021 5,8 10,8 20,3 14,7 14,0 19,0 28,3 22,5 37 58 83 NO 4,4 30,2 38,6
10/2021 13,8 16,1 19,5 19,8 21,7 24,3 30,1 16,3 53 70 83 NO 4,3 32,7 15,0
09/2021 16,3 20,9 24,7 24,7 26,5 29,2 33,1 16,8 47 65 82 O 4,3 31,6 8,3
08/2021 19,0 22,2 25,9 26,6 26,7 31,2 39,1 20,1 34 65 79 S 4,2 29,4 3,5
07/2021 18,5 21,0 23,6 25,5 27,3 30,0 34,9 16,4 38 67 80 SO 4,3 23,6 2,0
06/2021 16,7 19,1 22,6 23,3 23,5 27,7 33,5 16,8 39 65 85 SW 4,6 26,7 6,5
05/2021 11,8 14,3 17,6 19,0 19,8 23,6 31,2 19,4 45 67 87 SW 4,4 33,9 42,2
04/2021 7,7 11,4 15,9 15,1 14,6 19,3 25,3 17,6 37 75 95 W 4,0 27,4 78,6
Tots els anys disponibles
2021 2,5 14,3 25,9 18,5 10,1 23,1 39,1 36,6 33 65 95 NO 4,4 49,6 254,3
2020 3,2 14,3 24,6 18,7 10,9 23,6 37,0 33,8 30 66 97 NW 4,0 47,1 270,7
2019 3,5 13,9 25,9 18,3 12,5 23,2 37,3 33,8 27 61 89 NW 3,9 42,7 393,4
2018 3,8 14,2 26,0 18,4 9,7 23,1 36,9 33,1 28 62 92 O 4,2 45,0 354,2
2017 1,3 14,1 27,4 18,5 8,8 23,2 38,8 37,5 31 60 90 NW 4,2 41,9 292,9
2016 4,2 14,3 24,7 18,5 13,3 22,9 36,5 32,3 26 62 91 0 0 O 4,4 45,7 272,8
2015 1,2 14,4 25,8 18,6 11,0 23,1 37,8 36,6 27 62 90 NW 4,6 59,1 287,9
2014 3,5 14,6 24,4 18,7 11,2 23,0 33,7 30,2 31 61 89 NW 4,7 54,2 144,9
2013 3,3 13,7 22,7 17,9 11,9 22,3 33,0 29,7 29 59 89 NW 4,9 59,3 208,2
2012 -1,3 13,4 24,3 17,7 8,6 22,1 37,0 38,3 24 61 85 NW 4,6 50,9 242,0
2011 1,3 14,2 24,1 18,2 9,6 22,6 35,7 34,4 25 64 93 NW 4,5 43,0 337,0
2010 -0,5 13,1 23,2 17,1 6,6 21,2 36,0 36,5 27 63 95 4,6 53,0 318,0
2009 2,0 14,7 24,1 18,7 8,2 23,0 34,7 32,7 29 63 94 4,8 57,0 331,4
2008 380,0
2007 586,6
2006 333,6
Temperatura (°C)
Humitat relativa (%)
Velocitat del vent i ràfega màxima (km/h)
Direcció del vent (°)
Pressió (hPa)
Precipitació (mm)
Nota sobre les dades: s'avisa a l'usuari de la provisionalitat i no oficialitat d'aquestes dades
Logo AVAMET blanc
Web allotjada a Sollutia
Llicència de Creative CommonsLa web d'AVAMET i els seus continguts estan subjectes a una llicència de
Reconeixement - No Comercial - Compartir igual
Avís legal - Política de privacitat - Política de cookies
NOVES ESTACIONS:  l'Alqueria d'Asnar (Ajuntament/Soci), les Alqueries - Cap del Terme (Soci), Vila-real - les Solaes (Soci), Calles - Parque de Emergencias (Soci), Bocairent - els Corrals (Soci), Sella - el Xarquer, Xàbia - Far del Cap de la Nau (Soci), Benicàssim - Quadre de Santiago (Soci), Sant Mateu - IES Maestrat (Soci)  / el Palomar (Ajuntament/Soci) / Atzeneta del Maestrat - Pla de Meanes (Ajuntament/Soci) / Onda - Sant Gil (Soci) / Onda - Ràtils CR Cota 220 (Soci) / la Vila Joiosa (Ajuntament/Soci) / Miramar - Platja (Ajuntament/Soci) / Massanassa - IES Massanassa (Soci) / Culla - Pla de les Vinyes (Ajuntament/Soci) - - -